Summit Argo, IL (60501)

12:47 PM CDT del 25 Luglio 2016 (GMT -0500)
Lyons Police Department | | Change Station

Alt. 615 ft 41.81 °N, 87.83 °W | Updated 3 seconds ago

Mostly Cloudy
Molto nuvoloso
84.3 °F
Sembra 87 °F
N
0.0
Vento Variabile Vento da ONO
Gusts 1.0 mph

Oggi
Massima -- | Minima -- °F
--% Possibilità di precip.
Ieri
Massima -- | Minima -- °F
Precip. -- in
Pressione 29.97 in
Visibilità 10.0 miglia
Nuvole Alcuni 4000 ft
Alcuni 20000 ft
Molto nuvoloso 25000 ft
Indice di calore 87 °F
Punto di rugiada 66 °F
Umidità 55%
Piovosità 0.00 in
Spessore del manto nevoso Non disponibile.
5:39 AM 8:16 PM
Gobba a levante, 64% visible
METAR KMDW 251653Z 32008KT 10SM FEW040 FEW200 BKN250 29/17 A3000 RMK AO2 SLP147 T02890167
Pressione 29.97 in
Visibilità 10.0 miglia
Nuvole Alcuni 4000 ft
Alcuni 20000 ft
Molto nuvoloso 25000 ft
Indice di calore 87 °F
Punto di rugiada 66 °F
Umidità 55%
Piovosità 0.00 in
Spessore del manto nevoso Non disponibile.
5:39 AM 8:16 PM
Gobba a levante, 64% visible
METAR KMDW 251653Z 32008KT 10SM FEW040 FEW200 BKN250 29/17 A3000 RMK AO2 SLP147 T02890167

10-Day Weather Forecast

Almanac

Astronomia

Jul. 25, 2016 Alba Tramonto
Ora attuale
Crepuscolo civile
Crepuscolo nautico
Crepuscolo astronomico
Luna
Estensione della luce visibile
Lunghezza del giorno
Tomorrow will be .
, % of the Moon is Illuminated

Gli estremi di oggi

State Highs State Lows

Community

WunderPhotos

Upload Photos

1,927,364 foto caricate!

WunderBlog® & News

Nearby

Qualità dell'aria

  Qualità dell'aria Indice AQ Inquinante
Not available.

Profondità neve

Stazione Profondità Altitudine

Attività sismica

Città  Distanza Mag. Data & Ora
Minimo Magnitudo Mostrato è 2.5.

Temperature delle acque costiere

Località Temperatura

Stations

Stazioni meteo nelle vicinanze

Ubicazione della stazione Temp. Raffreddamento del vento Punto di rugiada Umidità Vento Precip. Alt. Aggiornato Tipo
                   

Watches & Warnings

Flood Advisory
Issued: 08:56 CDT Jul. 25, 2016 – National Weather Service

The Flood Advisory continues for
the North Branch Chicago river at Chicago Albany Ave
* until this afternoon.
* At 800 am Monday the stage was 5.8 feet.
* Action stage is 5.0 feet.
* Flood stage is 7.0 feet.
* Forecast... the river will continue to fall.


Lat... Lon 4203 8775 4196 8781 4194 8774 4189 8771
      4194 8765 4198 8767


Wdm